createdAt,value
2023-02-19T00:01:54.783Z,9.30
2023-02-19T00:04:24.569Z,9.30
2023-02-19T00:06:52.872Z,9.40
2023-02-19T00:09:21.860Z,9.40
2023-02-19T00:11:50.413Z,9.40
2023-02-19T00:14:20.945Z,9.40
2023-02-19T00:16:50.782Z,9.40
2023-02-19T00:19:20.628Z,9.40
2023-02-19T00:21:52.551Z,9.40
2023-02-19T00:24:21.265Z,9.40
2023-02-19T00:26:49.881Z,9.20
2023-02-19T00:29:22.637Z,9.10
2023-02-19T00:31:50.918Z,9.10
2023-02-19T00:34:19.494Z,9.10
2023-02-19T00:36:49.278Z,9.20
2023-02-19T00:39:18.697Z,9.20
2023-02-19T00:41:47.303Z,9.20
2023-02-19T00:44:16.330Z,9.30
2023-02-19T00:46:47.407Z,9.30
2023-02-19T00:49:18.484Z,9.30
2023-02-19T00:51:46.660Z,9.20
2023-02-19T00:54:16.394Z,9.20
2023-02-19T00:56:44.948Z,9.30
2023-02-19T00:59:13.528Z,9.30
2023-02-19T01:01:42.058Z,9.30
2023-02-19T01:04:10.282Z,9.30
2023-02-19T01:06:40.199Z,9.20
2023-02-19T01:09:08.340Z,9.10
2023-02-19T01:11:37.939Z,9.00
2023-02-19T01:14:06.799Z,8.90
2023-02-19T01:16:35.448Z,8.70
2023-02-19T01:19:03.881Z,8.60
2023-02-19T01:21:33.587Z,8.50
2023-02-19T01:24:01.788Z,8.50
2023-02-19T01:26:32.513Z,8.40
2023-02-19T01:29:02.638Z,8.30
2023-02-19T01:31:31.340Z,8.20
2023-02-19T01:34:01.630Z,8.20
2023-02-19T01:36:31.458Z,8.20
2023-02-19T01:39:03.740Z,8.20
2023-02-19T01:41:33.315Z,8.30
2023-02-19T01:44:07.847Z,8.30
2023-02-19T01:46:38.170Z,8.30
2023-02-19T01:49:09.537Z,8.30
2023-02-19T01:51:42.720Z,8.30
2023-02-19T01:54:13.874Z,8.30
2023-02-19T01:56:43.758Z,8.30
2023-02-19T01:59:13.766Z,8.30
2023-02-19T02:01:42.680Z,8.20
2023-02-19T02:04:12.940Z,8.30
2023-02-19T02:06:46.540Z,8.30
2023-02-19T02:09:47.249Z,8.40
2023-02-19T02:12:15.520Z,8.40
2023-02-19T02:14:48.605Z,8.40
2023-02-19T02:17:26.408Z,8.40
2023-02-19T02:20:07.816Z,8.30
2023-02-19T02:22:39.204Z,8.30
2023-02-19T02:25:39.995Z,8.30
2023-02-19T02:28:23.717Z,8.40
2023-02-19T02:30:57.499Z,8.30
2023-02-19T02:33:33.747Z,8.20
2023-02-19T02:36:08.047Z,8.20
2023-02-19T02:38:39.984Z,8.20
2023-02-19T02:41:08.430Z,8.20
2023-02-19T02:43:37.088Z,8.20
2023-02-19T02:46:07.588Z,8.20
2023-02-19T02:48:41.974Z,8.20
2023-02-19T02:51:16.758Z,8.10
2023-02-19T02:54:20.471Z,8.00
2023-02-19T02:56:49.764Z,7.90
2023-02-19T02:59:20.906Z,7.90
2023-02-19T03:02:12.300Z,7.90
2023-02-19T03:05:06.723Z,7.90
2023-02-19T03:07:39.593Z,8.00
2023-02-19T03:10:15.572Z,8.00
2023-02-19T03:12:59.926Z,8.10
2023-02-19T03:15:50.884Z,8.00
2023-02-19T03:18:40.087Z,7.90
2023-02-19T03:21:09.845Z,7.70
2023-02-19T03:23:58.516Z,7.50
2023-02-19T03:26:27.611Z,7.50
2023-02-19T03:29:15.087Z,7.40
2023-02-19T03:31:47.735Z,7.50
2023-02-19T03:34:24.715Z,7.40
2023-02-19T03:36:59.707Z,7.30
2023-02-19T03:39:28.542Z,7.30
2023-02-19T03:42:03.188Z,7.10
2023-02-19T03:44:42.488Z,6.80
2023-02-19T03:47:16.694Z,6.80
2023-02-19T03:49:50.654Z,6.70
2023-02-19T03:52:25.913Z,6.60
2023-02-19T03:55:02.684Z,6.50
2023-02-19T03:57:39.140Z,6.40
2023-02-19T04:00:12.743Z,6.30
2023-02-19T04:02:47.157Z,6.30
2023-02-19T04:05:20.445Z,6.20
2023-02-19T04:07:51.779Z,6.30
2023-02-19T04:10:28.243Z,6.30
2023-02-19T04:13:01.976Z,6.30
2023-02-19T04:15:33.025Z,6.20
2023-02-19T04:18:05.558Z,6.10
2023-02-19T04:20:39.626Z,6.10
2023-02-19T04:23:08.433Z,6.20
2023-02-19T04:25:38.945Z,6.00
2023-02-19T04:28:09.933Z,6.00
2023-02-19T04:30:38.182Z,6.10
2023-02-19T04:33:06.320Z,6.00
2023-02-19T04:35:35.871Z,5.90
2023-02-19T04:38:04.030Z,5.90
2023-02-19T04:40:32.267Z,5.90
2023-02-19T04:43:00.736Z,6.00
2023-02-19T04:45:28.866Z,5.90
2023-02-19T04:47:58.806Z,6.00
2023-02-19T04:50:26.984Z,5.90
2023-02-19T04:52:56.470Z,5.90
2023-02-19T04:55:24.616Z,5.90
2023-02-19T04:57:52.834Z,5.90
2023-02-19T05:00:21.225Z,5.90
2023-02-19T05:02:49.389Z,5.70
2023-02-19T05:05:17.709Z,5.60
2023-02-19T05:07:45.813Z,5.60
2023-02-19T05:10:15.325Z,5.60
2023-02-19T05:12:43.469Z,5.50
2023-02-19T05:15:11.677Z,5.60
2023-02-19T05:17:39.849Z,5.60
2023-02-19T05:20:09.086Z,5.70
2023-02-19T05:22:37.214Z,5.70
2023-02-19T05:25:06.287Z,5.70
2023-02-19T05:27:35.941Z,5.60
2023-02-19T05:30:06.024Z,5.70
2023-02-19T05:32:36.310Z,5.70
2023-02-19T05:35:04.800Z,5.70
2023-02-19T05:37:32.978Z,5.70
2023-02-19T05:40:01.234Z,5.70
2023-02-19T05:42:29.389Z,5.70
2023-02-19T05:44:58.910Z,5.70
2023-02-19T05:47:26.989Z,5.70
2023-02-19T05:49:55.085Z,5.70
2023-02-19T05:52:23.161Z,5.70
2023-02-19T05:54:51.330Z,5.80
2023-02-19T05:57:20.382Z,5.80
2023-02-19T05:59:48.475Z,5.70
2023-02-19T06:02:18.009Z,5.80
2023-02-19T06:04:46.216Z,5.80
2023-02-19T06:07:14.338Z,5.90
2023-02-19T06:09:42.651Z,5.90
2023-02-19T06:12:10.709Z,6.00
2023-02-19T06:14:38.791Z,6.00
2023-02-19T06:17:07.212Z,6.10
2023-02-19T06:19:36.770Z,6.20
2023-02-19T06:22:04.916Z,6.40
2023-02-19T06:24:33.233Z,6.40
2023-02-19T06:27:01.436Z,6.50
2023-02-19T06:29:29.587Z,6.50
2023-02-19T06:31:57.770Z,6.60
2023-02-19T06:34:26.354Z,6.50
2023-02-19T06:36:57.818Z,6.60
2023-02-19T06:39:26.438Z,6.60
2023-02-19T06:41:56.562Z,6.60
2023-02-19T06:44:25.020Z,6.70
2023-02-19T06:46:56.135Z,6.70
2023-02-19T06:49:24.489Z,6.80
2023-02-19T06:51:52.638Z,6.70
2023-02-19T06:54:22.483Z,6.60
2023-02-19T06:56:50.589Z,6.70
2023-02-19T06:59:18.845Z,6.80
2023-02-19T07:01:47.292Z,6.90
2023-02-19T07:04:15.861Z,7.00
2023-02-19T07:06:44.257Z,7.00
2023-02-19T07:09:12.747Z,6.90
2023-02-19T07:11:42.431Z,7.00
2023-02-19T07:14:16.245Z,7.10
2023-02-19T07:16:44.859Z,7.20
2023-02-19T07:19:12.982Z,7.30
2023-02-19T07:21:42.320Z,7.30
2023-02-19T07:24:11.494Z,7.50
2023-02-19T07:26:41.345Z,7.50
2023-02-19T07:29:11.354Z,7.60
2023-02-19T07:31:39.594Z,7.70
2023-02-19T07:34:08.785Z,7.70
2023-02-19T07:36:36.965Z,7.60
2023-02-19T07:39:05.741Z,7.70
2023-02-19T07:41:33.976Z,7.70
2023-02-19T07:44:03.455Z,7.70
2023-02-19T07:46:32.118Z,7.80
2023-02-19T07:49:01.116Z,7.80
2023-02-19T07:51:29.377Z,7.90
2023-02-19T07:53:57.421Z,8.20
2023-02-19T07:56:25.536Z,8.20
2023-02-19T07:58:53.666Z,8.40
2023-02-19T08:01:45.297Z,8.60
2023-02-19T08:04:14.287Z,8.60
2023-02-19T08:06:42.815Z,8.80
2023-02-19T08:09:11.525Z,9.20
2023-02-19T08:11:56.946Z,9.40
2023-02-19T08:14:26.313Z,9.60
2023-02-19T08:16:56.057Z,9.60
2023-02-19T08:19:24.501Z,9.80
2023-02-19T08:21:53.553Z,9.90
2023-02-19T08:24:21.851Z,9.90
2023-02-19T08:26:50.047Z,9.70
2023-02-19T08:29:18.241Z,9.60
2023-02-19T08:31:46.434Z,9.50
2023-02-19T08:34:15.947Z,9.60
2023-02-19T08:36:44.154Z,9.90
2023-02-19T08:39:12.819Z,9.70
2023-02-19T08:41:40.847Z,9.70
2023-02-19T08:44:08.968Z,9.90
2023-02-19T08:46:37.092Z,9.90
2023-02-19T08:49:05.313Z,9.80
2023-02-19T08:51:34.780Z,9.70
2023-02-19T08:54:04.209Z,9.60
2023-02-19T08:56:32.334Z,9.60
2023-02-19T08:59:00.724Z,9.50
2023-02-19T09:01:28.939Z,9.60
2023-02-19T09:03:57.455Z,9.50
2023-02-19T09:06:25.696Z,9.40
2023-02-19T09:08:55.192Z,9.40
2023-02-19T09:11:23.406Z,9.30
2023-02-19T09:13:51.529Z,9.20
2023-02-19T09:16:19.651Z,9.20
2023-02-19T09:18:47.737Z,8.90
2023-02-19T09:21:15.863Z,8.80
2023-02-19T09:23:43.953Z,8.50
2023-02-19T09:26:14.072Z,8.60
2023-02-19T09:28:43.043Z,8.60
2023-02-19T09:31:13.423Z,8.70
2023-02-19T09:33:44.904Z,8.80
2023-02-19T09:36:13.487Z,8.90
2023-02-19T09:38:41.681Z,9.10
2023-02-19T09:41:15.630Z,9.10
2023-02-19T09:43:45.672Z,9.10
2023-02-19T09:46:25.976Z,8.70
2023-02-19T09:48:56.702Z,8.40
2023-02-19T09:51:27.648Z,8.60
2023-02-19T09:53:56.987Z,8.70
2023-02-19T09:56:27.073Z,8.90
2023-02-19T09:58:59.116Z,9.00
2023-02-19T10:01:33.481Z,9.10
2023-02-19T10:04:01.697Z,8.80
2023-02-19T10:06:30.823Z,8.60
2023-02-19T10:09:14.681Z,8.30
2023-02-19T10:11:43.398Z,8.40
2023-02-19T10:14:18.532Z,8.50
2023-02-19T10:16:49.254Z,8.50
2023-02-19T10:19:18.162Z,8.50
2023-02-19T10:21:46.591Z,8.60
2023-02-19T10:24:21.456Z,8.80
2023-02-19T10:26:51.224Z,9.00
2023-02-19T10:29:21.739Z,9.10
2023-02-19T10:31:50.075Z,9.10
2023-02-19T10:34:22.166Z,9.00
2023-02-19T10:36:51.906Z,8.90
2023-02-19T10:39:42.836Z,8.80
2023-02-19T10:42:18.991Z,8.70
2023-02-19T10:44:52.716Z,8.70
2023-02-19T10:47:24.563Z,8.80
2023-02-19T10:49:54.302Z,8.60
2023-02-19T10:52:26.740Z,8.60
2023-02-19T10:54:58.408Z,8.60
2023-02-19T10:57:33.233Z,8.80
2023-02-19T11:00:20.054Z,8.80
2023-02-19T11:02:48.180Z,8.90
2023-02-19T11:05:29.105Z,9.00
2023-02-19T11:07:58.258Z,9.00
2023-02-19T11:10:29.928Z,9.00
2023-02-19T11:13:00.992Z,9.00
2023-02-19T11:15:33.269Z,9.10
2023-02-19T11:18:05.614Z,9.20
2023-02-19T11:20:34.626Z,9.30
2023-02-19T11:23:12.008Z,9.40
2023-02-19T11:25:47.007Z,9.20
2023-02-19T11:28:26.393Z,9.10
2023-02-19T11:30:55.914Z,9.00
2023-02-19T11:33:28.590Z,9.00
2023-02-19T11:36:17.786Z,8.80
2023-02-19T11:38:45.873Z,8.60
2023-02-19T11:41:24.650Z,8.50
2023-02-19T11:44:15.639Z,8.50
2023-02-19T11:46:53.169Z,8.50
2023-02-19T11:49:36.117Z,8.50
2023-02-19T11:52:22.819Z,8.60
2023-02-19T11:54:56.072Z,8.70
2023-02-19T11:57:37.713Z,8.80
2023-02-19T12:00:22.370Z,8.80
2023-02-19T12:03:16.177Z,8.70
2023-02-19T12:06:04.741Z,8.60
2023-02-19T12:08:59.285Z,8.60
2023-02-19T12:11:50.378Z,8.40
2023-02-19T12:14:54.143Z,8.30
2023-02-19T12:17:57.052Z,8.20
2023-02-19T12:20:36.573Z,8.30
2023-02-19T12:23:35.905Z,8.40
2023-02-19T12:26:09.163Z,8.50
2023-02-19T12:29:06.957Z,8.60
2023-02-19T12:32:06.879Z,8.80
2023-02-19T12:35:04.647Z,9.20
2023-02-19T12:37:45.212Z,9.60
2023-02-19T12:40:24.484Z,9.70
2023-02-19T12:43:03.616Z,9.80
2023-02-19T12:45:36.961Z,9.80
2023-02-19T12:48:12.653Z,9.80
2023-02-19T12:50:42.147Z,9.70
2023-02-19T12:53:30.054Z,9.70
2023-02-19T12:56:00.694Z,9.60
2023-02-19T12:58:33.245Z,9.80
2023-02-19T13:01:01.841Z,9.70
2023-02-19T13:03:33.418Z,9.60
2023-02-19T13:06:10.922Z,9.50
2023-02-19T13:09:03.556Z,9.30
2023-02-19T13:11:37.822Z,9.10
2023-02-19T13:14:14.526Z,9.10
2023-02-19T13:16:48.038Z,9.10
2023-02-19T13:19:16.294Z,9.10
2023-02-19T13:22:04.665Z,9.10
2023-02-19T13:24:37.638Z,9.00
2023-02-19T13:27:21.299Z,8.90
2023-02-19T13:30:11.279Z,8.90
2023-02-19T13:32:59.630Z,8.90
2023-02-19T13:35:51.968Z,8.90
2023-02-19T13:38:20.516Z,8.90
2023-02-19T13:40:57.061Z,9.20
2023-02-19T13:43:27.970Z,9.20
2023-02-19T13:45:58.665Z,9.20
2023-02-19T13:48:30.844Z,9.20
2023-02-19T13:51:36.357Z,9.30
2023-02-19T13:54:15.752Z,9.20
2023-02-19T13:56:45.431Z,9.10
2023-02-19T13:59:40.457Z,9.00
2023-02-19T14:02:36.194Z,9.00
2023-02-19T14:05:07.897Z,9.00
2023-02-19T14:07:55.486Z,9.10
2023-02-19T14:11:02.031Z,9.00
2023-02-19T14:14:06.450Z,9.00
2023-02-19T14:17:01.224Z,8.90
2023-02-19T14:19:57.065Z,8.80
2023-02-19T14:23:10.707Z,8.60
2023-02-19T14:25:48.057Z,8.70
2023-02-19T14:28:44.306Z,8.70
2023-02-19T14:31:33.522Z,8.90
2023-02-19T14:34:04.920Z,8.90
2023-02-19T14:36:39.726Z,9.00
2023-02-19T14:39:14.948Z,9.10
2023-02-19T14:41:46.809Z,9.20
2023-02-19T14:44:23.336Z,9.30
2023-02-19T14:46:58.458Z,9.40
2023-02-19T14:49:31.828Z,9.40
2023-02-19T14:52:04.373Z,9.20
2023-02-19T14:54:41.170Z,9.10
2023-02-19T14:57:16.086Z,9.10
2023-02-19T14:59:55.308Z,8.90
2023-02-19T15:02:25.976Z,8.70
2023-02-19T15:04:56.982Z,8.60
2023-02-19T15:07:29.179Z,8.50
2023-02-19T15:10:04.902Z,8.40
2023-02-19T15:12:36.589Z,8.30
2023-02-19T15:15:06.823Z,8.30
2023-02-19T15:17:43.016Z,8.30
2023-02-19T15:20:16.756Z,8.30
2023-02-19T15:22:46.195Z,8.30
2023-02-19T15:25:19.292Z,8.30
2023-02-19T15:27:47.679Z,8.30
2023-02-19T15:30:22.937Z,8.30
2023-02-19T15:32:56.823Z,8.20
2023-02-19T15:35:26.266Z,8.20
2023-02-19T15:37:56.151Z,8.20
2023-02-19T15:40:27.881Z,8.20
2023-02-19T15:42:56.067Z,8.10
2023-02-19T15:45:27.553Z,8.10
2023-02-19T15:47:59.533Z,8.10
2023-02-19T15:50:31.004Z,8.00
2023-02-19T15:53:04.627Z,8.00
2023-02-19T15:55:37.884Z,8.00
2023-02-19T15:58:12.995Z,8.10
2023-02-19T16:00:46.770Z,8.00
2023-02-19T16:03:20.374Z,8.00
2023-02-19T16:06:00.331Z,8.00
2023-02-19T16:08:31.790Z,8.10
2023-02-19T16:11:01.737Z,8.10
2023-02-19T16:13:31.389Z,8.10
2023-02-19T16:16:07.399Z,8.10
2023-02-19T16:18:37.198Z,8.10
2023-02-19T16:21:09.768Z,8.10
2023-02-19T16:23:44.127Z,8.10
2023-02-19T16:26:12.730Z,8.10
2023-02-19T16:28:42.770Z,8.10
2023-02-19T16:31:13.777Z,8.00
2023-02-19T16:33:46.482Z,7.90
2023-02-19T16:36:21.351Z,7.90
2023-02-19T16:39:15.862Z,7.90
2023-02-19T16:42:12.174Z,7.90
2023-02-19T16:44:40.524Z,7.80
2023-02-19T16:47:28.784Z,7.80
2023-02-19T16:49:59.941Z,7.70
2023-02-19T16:52:30.034Z,7.70
2023-02-19T16:54:58.692Z,7.70
2023-02-19T16:57:27.240Z,7.70
2023-02-19T16:59:55.530Z,7.70
2023-02-19T17:02:25.753Z,7.70
2023-02-19T17:04:55.730Z,7.70
2023-02-19T17:07:27.435Z,7.70
2023-02-19T17:09:55.689Z,7.70
2023-02-19T17:12:24.484Z,7.70
2023-02-19T17:14:52.658Z,7.70
2023-02-19T17:17:20.885Z,7.70
2023-02-19T17:19:49.085Z,7.80
2023-02-19T17:22:17.875Z,7.80
2023-02-19T17:24:48.302Z,7.70
2023-02-19T17:27:16.706Z,7.70
2023-02-19T17:29:45.295Z,7.60
2023-02-19T17:32:14.404Z,7.60
2023-02-19T17:34:42.683Z,7.60
2023-02-19T17:37:10.808Z,7.60
2023-02-19T17:39:39.049Z,7.50
2023-02-19T17:42:08.650Z,7.50
2023-02-19T17:44:36.832Z,7.50
2023-02-19T17:47:05.136Z,7.50
2023-02-19T17:49:33.377Z,7.50
2023-02-19T17:52:01.603Z,7.40
2023-02-19T17:54:30.043Z,7.40
2023-02-19T17:56:58.181Z,7.40
2023-02-19T17:59:27.829Z,7.40
2023-02-19T18:01:56.108Z,7.40
2023-02-19T18:04:24.316Z,7.40
2023-02-19T18:06:53.897Z,7.40
2023-02-19T18:09:23.132Z,7.40
2023-02-19T18:11:51.733Z,7.30
2023-02-19T18:14:20.075Z,7.30
2023-02-19T18:16:50.776Z,7.30
2023-02-19T18:19:19.862Z,7.30
2023-02-19T18:21:48.045Z,7.30
2023-02-19T18:24:16.780Z,7.30
2023-02-19T18:26:45.039Z,7.20
2023-02-19T18:29:13.556Z,7.20
2023-02-19T18:31:41.865Z,7.20
2023-02-19T18:34:17.720Z,7.20
2023-02-19T18:36:46.538Z,7.20
2023-02-19T18:39:15.292Z,7.20
2023-02-19T18:41:49.020Z,7.10
2023-02-19T18:44:21.084Z,7.20
2023-02-19T18:46:50.007Z,7.10
2023-02-19T18:49:20.105Z,7.10
2023-02-19T18:51:49.401Z,7.10
2023-02-19T18:54:17.683Z,7.00
2023-02-19T18:56:46.880Z,6.90
2023-02-19T18:59:15.848Z,6.80
2023-02-19T19:01:44.258Z,6.80
2023-02-19T19:04:12.625Z,6.80
2023-02-19T19:06:42.346Z,6.80
2023-02-19T19:09:10.540Z,6.90
2023-02-19T19:11:39.113Z,6.90
2023-02-19T19:14:07.410Z,6.90
2023-02-19T19:16:35.616Z,6.80
2023-02-19T19:19:04.151Z,6.80
2023-02-19T19:21:32.903Z,6.90
2023-02-19T19:24:02.668Z,6.90
2023-02-19T19:26:31.090Z,6.90
2023-02-19T19:28:59.632Z,6.80
2023-02-19T19:31:34.582Z,6.80
2023-02-19T19:34:02.939Z,6.80
2023-02-19T19:36:31.479Z,6.80
2023-02-19T19:38:59.712Z,6.80
2023-02-19T19:41:29.573Z,6.80
2023-02-19T19:43:57.742Z,6.80
2023-02-19T19:46:26.019Z,6.80
2023-02-19T19:48:54.176Z,6.80
2023-02-19T19:51:22.413Z,6.80
2023-02-19T19:53:51.164Z,6.80
2023-02-19T19:56:19.657Z,6.80
2023-02-19T19:58:50.116Z,6.90
2023-02-19T20:01:21.131Z,6.80
2023-02-19T20:03:50.966Z,6.80
2023-02-19T20:06:27.066Z,6.80
2023-02-19T20:08:55.708Z,6.70
2023-02-19T20:11:24.177Z,6.70
2023-02-19T20:13:53.704Z,6.70
2023-02-19T20:16:26.256Z,6.70
2023-02-19T20:18:54.539Z,6.60
2023-02-19T20:21:22.747Z,6.60
2023-02-19T20:23:50.917Z,6.60
2023-02-19T20:26:26.690Z,6.50
2023-02-19T20:28:56.781Z,6.50
2023-02-19T20:31:25.646Z,6.50
2023-02-19T20:33:54.162Z,6.50
2023-02-19T20:36:22.549Z,6.40
2023-02-19T20:38:51.488Z,6.40
2023-02-19T20:41:19.605Z,6.40
2023-02-19T20:43:48.172Z,6.30
2023-02-19T20:46:17.800Z,6.40
2023-02-19T20:48:46.256Z,6.30
2023-02-19T20:51:14.500Z,6.40
2023-02-19T20:53:43.504Z,6.30
2023-02-19T20:56:12.653Z,6.30
2023-02-19T20:58:43.382Z,6.30
2023-02-19T21:01:12.346Z,6.30
2023-02-19T21:03:42.126Z,6.30
2023-02-19T21:06:10.395Z,6.30
2023-02-19T21:08:38.817Z,6.30
2023-02-19T21:11:07.050Z,6.30
2023-02-19T21:13:36.147Z,6.30
2023-02-19T21:16:07.991Z,6.30
2023-02-19T21:18:36.281Z,6.20
2023-02-19T21:21:10.254Z,6.10
2023-02-19T21:23:38.482Z,5.90
2023-02-19T21:26:06.687Z,5.80
2023-02-19T21:28:34.912Z,5.90
2023-02-19T21:31:03.139Z,5.90
2023-02-19T21:33:31.421Z,6.00
2023-02-19T21:35:59.693Z,6.00
2023-02-19T21:38:29.223Z,6.00
2023-02-19T21:40:57.378Z,6.00
2023-02-19T21:43:25.500Z,6.00
2023-02-19T21:45:53.850Z,6.00
2023-02-19T21:48:22.211Z,6.00
2023-02-19T21:50:50.383Z,6.10
2023-02-19T21:53:18.590Z,6.10
2023-02-19T21:55:58.198Z,6.10
2023-02-19T21:58:27.118Z,6.10
2023-02-19T22:00:56.228Z,6.10
2023-02-19T22:03:26.460Z,6.10
2023-02-19T22:05:54.728Z,6.10
2023-02-19T22:08:22.892Z,6.20
2023-02-19T22:10:52.404Z,6.10
2023-02-19T22:13:20.513Z,6.10
2023-02-19T22:15:48.674Z,6.10
2023-02-19T22:18:16.807Z,6.10
2023-02-19T22:20:45.005Z,6.00
2023-02-19T22:23:13.115Z,6.00
2023-02-19T22:25:41.272Z,6.00
2023-02-19T22:28:10.763Z,6.00
2023-02-19T22:30:39.014Z,6.00
2023-02-19T22:33:07.370Z,5.90
2023-02-19T22:35:35.544Z,5.90
2023-02-19T22:38:04.007Z,5.80
2023-02-19T22:40:32.119Z,5.80
2023-02-19T22:43:00.190Z,5.70
2023-02-19T22:45:29.790Z,5.70
2023-02-19T22:47:57.962Z,5.70
2023-02-19T22:50:26.464Z,5.70
2023-02-19T22:52:55.457Z,5.70
2023-02-19T22:55:23.640Z,5.70
2023-02-19T22:57:51.812Z,5.70
2023-02-19T23:00:21.588Z,5.60
2023-02-19T23:02:52.099Z,5.60
2023-02-19T23:05:20.258Z,5.60
2023-02-19T23:07:48.414Z,5.40
2023-02-19T23:10:16.625Z,5.30
2023-02-19T23:12:44.789Z,5.30
2023-02-19T23:15:13.005Z,5.30
2023-02-19T23:17:41.190Z,5.40
2023-02-19T23:20:11.824Z,5.40
2023-02-19T23:22:39.983Z,5.40
2023-02-19T23:25:08.971Z,5.40
2023-02-19T23:27:37.053Z,5.40
2023-02-19T23:30:05.797Z,5.40
2023-02-19T23:32:34.094Z,5.40
2023-02-19T23:35:02.792Z,5.40
2023-02-19T23:37:32.321Z,5.40
2023-02-19T23:40:00.856Z,5.30
2023-02-19T23:42:28.985Z,5.30
2023-02-19T23:44:57.128Z,5.30
2023-02-19T23:47:26.521Z,5.30
2023-02-19T23:49:54.745Z,5.20
2023-02-19T23:52:22.888Z,5.20
2023-02-19T23:54:52.384Z,5.20
2023-02-19T23:57:20.516Z,5.20
2023-02-19T23:59:49.148Z,5.20
